Aviation Digital Data Service (ADDS)

Output produced by METARs form (1506 UTC 13 February 2016)
found at http://aviationweather.gov/adds/metars/
 
KRDU 131133Z 1312/1412 32012G24KT P6SM SCT040 
     FM131700 32013KT P6SM FEW045 
     FM132300 32008G16KT P6SM SKC 
     FM140800 36006KT P6SM SKC